Time;durP1;ratioP1;P1;durP2;ratioP2;P2;SDS_P1;SDS_P2;PMS_P1;PMS_P2;Temp;Humidity;BMP_temperature;BMP_pressure;BME280_temperature;BME280_humidity;BME280_pressure;Samples;Min_cycle;Max_cycle;Signal;HPM_P1;HPM_P2
2023/10/09 00:02:06;;;;;;;9.73;4.93;;;18.90;68.00;;;;;;5098926;28;20254;-64
2023/10/09 00:04:36;;;;;;;11.87;4.90;;;18.90;67.90;;;;;;5103077;28;20708;-63
2023/10/09 00:07:07;;;;;;;10.77;5.33;;;18.90;67.80;;;;;;5115563;28;20239;-64
2023/10/09 00:09:46;;;;;;;10.83;5.20;;;18.90;67.80;;;;;;5114431;28;20203;-63
2023/10/09 00:12:15;;;;;;;11.47;4.80;;;18.90;68.10;;;;;;5115589;28;20195;-63
2023/10/09 00:14:47;;;;;;;11.43;5.30;;;18.70;68.00;;;;;;5109481;28;20231;-64
2023/10/09 00:17:18;;;;;;;8.33;4.57;;;18.80;68.30;;;;;;5108369;28;20668;-64
2023/10/09 00:19:47;;;;;;;8.20;4.67;;;18.80;68.30;;;;;;5094930;28;20213;-64
2023/10/09 00:22:25;;;;;;;10.37;5.00;;;18.80;68.30;;;;;;5098995;28;20647;-65
2023/10/09 00:25:10;;;;;;;11.53;4.80;;;18.80;68.30;;;;;;5105115;28;20657;-64
2023/10/09 00:27:41;;;;;;;11.20;4.80;;;18.90;68.30;;;;;;5115619;28;20234;-64
2023/10/09 00:30:15;;;;;;;14.70;5.73;;;18.90;68.10;;;;;;5080297;28;20230;-64
2023/10/09 00:32:51;;;;;;;12.37;5.80;;;18.90;68.10;;;;;;5106819;28;20265;-64
2023/10/09 00:35:37;;;;;;;9.57;4.90;;;18.90;68.00;;;;;;5090840;28;20590;-64
2023/10/09 00:38:14;;;;;;;11.67;5.03;;;18.90;68.10;;;;;;5094969;28;20226;-64
2023/10/09 00:40:46;;;;;;;13.60;5.03;;;18.90;68.10;;;;;;5110094;28;20310;-64
2023/10/09 00:43:14;;;;;;;16.30;5.87;;;18.90;68.10;;;;;;5102679;27;20301;-64
2023/10/09 00:45:44;;;;;;;16.93;5.70;;;18.90;68.30;;;;;;5094332;28;20204;-64
2023/10/09 00:48:14;;;;;;;9.43;4.80;;;18.80;68.60;;;;;;5094393;28;20205;-64
2023/10/09 00:50:48;;;;;;;10.33;4.80;;;18.80;68.60;;;;;;5093855;28;20245;-64
2023/10/09 00:53:18;;;;;;;11.30;4.97;;;18.80;68.80;;;;;;5103720;28;20280;-64
2023/10/09 00:55:55;;;;;;;13.50;4.77;;;18.80;68.80;;;;;;5114258;28;20208;-64
2023/10/09 00:58:26;;;;;;;11.80;4.63;;;18.80;68.90;;;;;;5110762;28;20246;-64
2023/10/09 01:00:56;;;;;;;11.60;5.13;;;18.70;69.20;;;;;;5114442;28;20207;-64
2023/10/09 01:03:23;;;;;;;12.53;5.40;;;18.70;70.40;;;;;;5097816;28;20541;-64
2023/10/09 01:05:57;;;;;;;11.80;4.33;;;18.70;69.50;;;;;;5094046;28;20305;-64
2023/10/09 01:08:43;;;;;;;14.00;4.77;;;18.70;70.30;;;;;;5105607;28;20200;-64
2023/10/09 01:11:18;;;;;;;9.57;4.83;;;18.70;69.40;;;;;;5073624;28;20208;-64
2023/10/09 01:13:53;;;;;;;10.27;4.67;;;18.80;69.20;;;;;;5095607;28;20259;-64
2023/10/09 01:16:23;;;;;;;12.30;5.17;;;18.90;69.10;;;;;;5093974;28;20210;-64
2023/10/09 01:18:52;;;;;;;12.27;5.30;;;18.90;69.00;;;;;;5098489;28;20603;-64
2023/10/09 01:21:23;;;;;;;18.07;5.70;;;18.90;68.90;;;;;;5094886;28;20653;-64
2023/10/09 01:24:08;;;;;;;10.97;5.57;;;18.90;68.80;;;;;;5097713;28;20386;-63
2023/10/09 01:26:44;;;;;;;11.53;5.70;;;18.90;68.80;;;;;;5103850;28;20301;-64
2023/10/09 01:29:14;;;;;;;9.80;4.67;;;18.90;68.90;;;;;;5111655;28;20294;-64
2023/10/09 01:31:46;;;;;;;8.37;4.70;;;19.00;69.00;;;;;;5113662;28;20230;-64
2023/10/09 01:34:14;;;;;;;12.03;5.23;;;19.00;68.90;;;;;;5094892;28;20231;-64
2023/10/09 01:36:41;;;;;;;12.73;5.67;;;19.00;69.00;;;;;;5108798;28;20262;-64
2023/10/09 01:39:21;;;;;;;14.33;5.90;;;18.90;68.80;;;;;;5093807;28;20403;-64
2023/10/09 01:41:49;;;;;;;16.17;5.47;;;19.00;69.00;;;;;;5078902;28;20295;-64
2023/10/09 01:44:16;;;;;;;11.27;5.40;;;18.90;68.90;;;;;;5107375;28;20207;-64
2023/10/09 01:46:45;;;;;;;8.60;4.57;;;18.90;69.00;;;;;;5094432;28;20421;-63
2023/10/09 01:49:21;;;;;;;11.97;4.33;;;18.90;69.00;;;;;;5111034;28;20454;-64
2023/10/09 01:51:48;;;;;;;11.33;6.23;;;19.00;69.10;;;;;;5112956;28;20274;-64
2023/10/09 01:54:33;;;;;;;8.73;3.93;;;18.90;69.00;;;;;;5100454;28;20217;-64
2023/10/09 01:57:05;;;;;;;14.93;5.37;;;18.90;69.20;;;;;;5094208;28;20184;-64
2023/10/09 01:59:32;;;;;;;15.77;5.93;;;18.90;69.50;;;;;;5093409;28;20234;-64
2023/10/09 02:02:01;;;;;;;11.00;4.83;;;18.80;69.50;;;;;;5092396;28;20208;-64
2023/10/09 02:04:28;;;;;;;9.87;4.73;;;18.80;69.60;;;;;;5112433;28;20275;-64
2023/10/09 02:06:55;;;;;;;12.73;4.80;;;18.90;69.80;;;;;;5110501;28;20568;-63
2023/10/09 02:09:30;;;;;;;16.33;5.47;;;18.90;69.70;;;;;;5092688;28;20439;-64
2023/10/09 02:12:00;;;;;;;8.53;4.70;;;18.90;69.70;;;;;;5092626;28;20800;-64
2023/10/09 02:14:27;;;;;;;12.33;5.30;;;18.90;69.70;;;;;;5111783;28;20247;-64
2023/10/09 02:17:05;;;;;;;12.57;5.40;;;19.00;69.90;;;;;;5104167;28;20209;-64
2023/10/09 02:19:34;;;;;;;12.53;5.43;;;18.90;70.00;;;;;;5092616;28;20201;-62
2023/10/09 02:22:12;;;;;;;15.67;5.53;;;18.90;70.20;;;;;;5102251;28;20196;-64
2023/10/09 02:24:49;;;;;;;12.30;5.60;;;19.00;71.20;;;;;;5112600;28;20450;-64
2023/10/09 02:27:39;;;;;;;14.27;4.83;;;18.90;70.70;;;;;;5106752;28;20201;-64
2023/10/09 02:30:15;;;;;;;12.80;4.90;;;18.90;70.80;;;;;;5092071;28;20443;-63
2023/10/09 02:32:48;;;;;;;12.47;5.53;;;18.80;71.40;;;;;;5096486;28;20563;-64
2023/10/09 02:35:36;;;;;;;14.27;5.40;;;18.70;71.40;;;;;;5109175;28;20223;-63
2023/10/09 02:38:06;;;;;;;14.67;5.50;;;18.70;71.50;;;;;;5096489;28;20473;-64
2023/10/09 02:40:40;;;;;;;17.07;6.10;;;18.70;71.40;;;;;;5112258;28;20455;-64
2023/10/09 02:43:12;;;;;;;13.53;4.97;;;18.70;71.40;;;;;;5112764;28;20558;-64
2023/10/09 02:45:49;;;;;;;11.80;4.93;;;18.70;71.30;;;;;;5111816;28;20203;-63
2023/10/09 02:48:19;;;;;;;13.87;5.50;;;18.80;71.00;;;;;;5102184;28;20210;-64
2023/10/09 02:50:46;;;;;;;17.30;5.17;;;18.90;70.80;;;;;;5095483;28;20293;-64
2023/10/09 02:53:18;;;;;;;16.20;5.80;;;18.90;70.50;;;;;;5092083;28;20200;-64
2023/10/09 02:56:03;;;;;;;10.50;4.87;;;18.90;70.20;;;;;;5091638;28;20212;-64
2023/10/09 02:58:32;;;;;;;11.13;5.10;;;18.90;70.10;;;;;;5098231;28;20229;-64
2023/10/09 03:00:59;;;;;;;12.20;5.37;;;18.90;69.80;;;;;;5091183;28;20672;-63
2023/10/09 03:03:27;;;;;;;10.77;5.17;;;18.90;69.70;;;;;;5106385;28;20192;-64
2023/10/09 03:05:54;;;;;;;14.77;5.60;;;18.90;69.50;;;;;;5112016;28;20723;-64
2023/10/09 03:08:21;;;;;;;13.20;5.00;;;18.90;69.40;;;;;;5097898;28;20200;-64
2023/10/09 03:10:49;;;;;;;10.63;5.27;;;18.90;69.00;;;;;;5091664;28;20246;-63
2023/10/09 03:13:19;;;;;;;11.03;4.70;;;18.90;68.90;;;;;;5091429;28;20342;-64
2023/10/09 03:15:48;;;;;;;12.70;5.20;;;18.90;68.80;;;;;;5090818;28;20699;-64
2023/10/09 03:18:15;;;;;;;13.60;5.10;;;18.80;68.80;;;;;;5092383;28;20243;-64
2023/10/09 03:20:44;;;;;;;14.20;5.20;;;18.70;68.80;;;;;;5092640;28;20205;-64
2023/10/09 03:23:14;;;;;;;12.63;5.37;;;18.70;69.60;;;;;;5103902;28;20217;-64
2023/10/09 03:25:45;;;;;;;14.97;6.27;;;18.70;68.80;;;;;;5114719;28;20314;-64
2023/10/09 03:28:15;;;;;;;14.73;5.50;;;18.70;68.80;;;;;;5125749;28;20263;-64
2023/10/09 03:30:46;;;;;;;10.70;4.60;;;18.70;68.70;;;;;;5125294;28;20205;-64
2023/10/09 03:33:15;;;;;;;13.00;5.07;;;18.70;68.80;;;;;;5113686;28;20567;-63
2023/10/09 03:35:42;;;;;;;12.50;4.90;;;18.80;68.90;;;;;;5110859;28;20228;-64
2023/10/09 03:38:16;;;;;;;13.60;4.47;;;18.80;68.80;;;;;;5110400;28;20445;-64
2023/10/09 03:40:43;;;;;;;12.10;4.63;;;18.80;68.60;;;;;;5112538;28;20199;-64
2023/10/09 03:43:11;;;;;;;12.37;4.77;;;18.80;68.60;;;;;;5110942;28;20215;-64
2023/10/09 03:45:45;;;;;;;11.83;5.17;;;18.80;68.70;;;;;;5110547;28;20200;-65
2023/10/09 03:48:20;;;;;;;13.70;4.90;;;18.80;68.80;;;;;;5101438;28;20590;-64
2023/10/09 03:50:47;;;;;;;12.23;5.43;;;18.70;68.80;;;;;;5091991;28;20230;-64
2023/10/09 03:53:14;;;;;;;10.57;5.13;;;18.70;68.60;;;;;;5091322;28;20443;-64
2023/10/09 03:55:41;;;;;;;13.50;5.60;;;18.70;68.70;;;;;;5054938;28;20232;-64
2023/10/09 03:58:11;;;;;;;11.03;4.50;;;18.60;68.90;;;;;;5098116;28;20451;-64
2023/10/09 04:00:44;;;;;;;11.57;4.87;;;18.50;69.00;;;;;;5110178;28;20200;-64
2023/10/09 04:03:14;;;;;;;14.70;5.30;;;18.50;69.20;;;;;;5090759;28;20305;-62
2023/10/09 04:05:42;;;;;;;13.50;5.20;;;18.40;69.20;;;;;;5100779;28;20248;-64
2023/10/09 04:08:13;;;;;;;13.90;5.37;;;18.40;69.40;;;;;;5101442;28;20560;-64
2023/10/09 04:10:52;;;;;;;13.07;5.17;;;18.30;69.50;;;;;;5106935;28;20291;-64
2023/10/09 04:13:22;;;;;;;12.07;4.57;;;18.30;69.60;;;;;;5092932;28;20457;-64
2023/10/09 04:15:53;;;;;;;10.90;4.73;;;18.30;69.60;;;;;;5100792;28;20236;-64
2023/10/09 04:18:28;;;;;;;10.77;5.07;;;18.30;69.60;;;;;;5100628;28;20279;-64
2023/10/09 04:23:59;;;;;;;13.03;4.70;;;18.20;69.50;;;;;;5083236;28;20208;-64
2023/10/09 04:26:25;;;;;;;15.93;5.17;;;18.20;69.70;;;;;;5090793;28;20241;-64
2023/10/09 04:28:53;;;;;;;11.33;5.20;;;18.10;69.80;;;;;;5090837;28;20220;-64
2023/10/09 04:31:27;;;;;;;12.47;5.10;;;18.10;70.10;;;;;;5090815;28;20958;-64
2023/10/09 04:34:21;;;;;;;13.67;5.67;;;18.00;70.30;;;;;;5091001;28;20573;-64
2023/10/09 04:36:49;;;;;;;11.07;5.30;;;17.90;70.40;;;;;;5090402;28;20224;-64
2023/10/09 04:39:34;;;;;;;14.80;4.83;;;17.80;70.80;;;;;;5095349;28;20200;-64
2023/10/09 04:47:37;;;;;;;11.50;5.27;;;17.70;71.40;;;;;;5078850;28;20324;-65
2023/10/09 04:50:11;;;;;;;11.13;4.93;;;17.80;71.60;;;;;;5108423;28;20450;-64
2023/10/09 04:52:52;;;;;;;12.87;5.17;;;17.80;71.70;;;;;;5094254;28;20797;-65
2023/10/09 04:55:19;;;;;;;8.77;4.77;;;17.80;71.90;;;;;;5099274;28;20481;-64
2023/10/09 04:58:00;;;;;;;14.17;5.30;;;17.90;71.90;;;;;;5114800;28;20206;-64
2023/10/09 05:03:11;;;;;;;12.77;5.50;;;18.00;72.10;;;;;;5107580;28;20463;-64
2023/10/09 05:05:58;;;;;;;13.33;5.50;;;18.00;72.30;;;;;;5101805;28;20356;-64
2023/10/09 05:08:28;;;;;;;12.83;5.07;;;18.00;72.50;;;;;;5109491;28;20231;-63
2023/10/09 05:11:15;;;;;;;13.13;5.23;;;18.00;72.70;;;;;;5099003;28;20203;-64
2023/10/09 05:13:44;;;;;;;12.87;5.60;;;18.00;73.00;;;;;;5080037;28;20319;-64
2023/10/09 05:16:18;;;;;;;11.63;5.27;;;18.00;73.00;;;;;;5111593;28;20561;-64
2023/10/09 05:18:55;;;;;;;11.57;5.37;;;18.00;73.00;;;;;;5105149;28;20211;-64
2023/10/09 05:21:44;;;;;;;11.90;5.37;;;18.00;73.10;;;;;;5102982;28;20244;-64
2023/10/09 05:24:19;;;;;;;13.97;4.80;;;18.00;73.40;;;;;;5094889;28;20211;-64
2023/10/09 05:26:52;;;;;;;16.27;5.83;;;17.90;73.50;;;;;;5106248;28;20215;-64
2023/10/09 05:29:34;;;;;;;12.20;5.17;;;17.90;73.60;;;;;;5100349;28;20203;-64
2023/10/09 05:32:03;;;;;;;11.57;4.90;;;17.90;74.00;;;;;;5094103;28;20207;-64
2023/10/09 05:35:04;;;;;;;12.63;5.67;;;17.90;73.90;;;;;;5097417;28;20224;-64
2023/10/09 05:37:24;;;;;;;13.77;5.83;;;17.90;74.00;;;;;;5089740;28;20446;-63
2023/10/09 05:40:22;;;;;;;12.80;6.03;;;18.00;73.70;;;;;;5093553;28;20541;-64
2023/10/09 05:42:45;;;;;;;13.37;5.23;;;18.00;73.50;;;;;;5096195;28;20249;-64
2023/10/09 05:48:06;;;;;;;12.63;5.50;;;18.10;73.40;;;;;;5099693;28;20229;-64
2023/10/09 05:50:37;;;;;;;11.87;4.47;;;18.20;73.20;;;;;;5096672;28;20891;-64
2023/10/09 05:53:07;;;;;;;13.97;5.20;;;18.20;72.80;;;;;;5094246;28;20969;-64
2023/10/09 06:03:53;;;;;;;14.30;5.70;;;18.40;72.30;;;;;;5093100;28;20425;-64
2023/10/09 06:11:56;;;;;;;10.47;5.00;;;18.50;71.90;;;;;;5097523;28;20520;-64
2023/10/09 06:14:49;;;;;;;15.33;4.80;;;18.60;71.80;;;;;;5091335;28;20457;-64
2023/10/09 06:17:23;;;;;;;15.23;5.03;;;18.60;71.40;;;;;;5091579;28;20197;-64
2023/10/09 06:19:49;;;;;;;14.00;4.97;;;18.60;71.30;;;;;;5092924;28;20220;-64
2023/10/09 06:25:17;;;;;;;13.57;5.57;;;18.70;71.40;;;;;;5049086;28;20672;-65
2023/10/09 06:28:01;;;;;;;17.27;5.00;;;18.80;71.10;;;;;;5028912;28;20206;-65
2023/10/09 06:30:28;;;;;;;12.37;5.10;;;18.80;70.90;;;;;;5069022;28;20192;-64
2023/10/09 06:33:19;;;;;;;17.13;5.30;;;18.90;70.90;;;;;;5112130;28;20227;-65
2023/10/09 06:35:53;;;;;;;12.60;5.00;;;19.00;70.70;;;;;;5103895;28;20216;-64
2023/10/09 06:38:40;;;;;;;12.20;4.63;;;19.00;70.30;;;;;;5099432;28;20196;-65
2023/10/09 06:41:34;;;;;;;14.83;5.13;;;19.10;70.30;;;;;;5093458;28;20201;-64
2023/10/09 06:44:05;;;;;;;11.97;5.43;;;19.00;70.20;;;;;;5100307;28;20231;-64
2023/10/09 06:46:43;;;;;;;10.47;4.97;;;19.00;70.20;;;;;;5076029;28;20237;-64
2023/10/09 06:49:29;;;;;;;11.67;4.87;;;19.10;70.40;;;;;;5092078;28;20219;-64
2023/10/09 06:52:13;;;;;;;13.77;5.10;;;19.10;70.30;;;;;;5100979;28;20228;-63
2023/10/09 06:54:49;;;;;;;10.20;4.97;;;19.10;70.10;;;;;;5091892;28;20257;-64
2023/10/09 06:57:43;;;;;;;10.70;4.67;;;19.20;70.10;;;;;;5091818;28;20227;-65
2023/10/09 07:02:57;;;;;;;10.63;4.17;;;19.30;69.70;;;;;;5091181;28;20251;-64
2023/10/09 07:05:37;;;;;;;12.03;4.83;;;19.40;69.50;;;;;;5091708;28;20480;-64
2023/10/09 07:08:28;;;;;;;12.30;4.97;;;19.40;69.50;;;;;;5092448;28;20286;-64
2023/10/09 07:11:20;;;;;;;10.67;5.03;;;19.50;69.40;;;;;;5109326;28;20773;-64
2023/10/09 07:13:38;;;;;;;13.03;4.37;;;19.50;69.20;;;;;;5069663;28;20223;-64
2023/10/09 07:18:54;;;;;;;16.97;5.00;;;19.60;69.00;;;;;;5085880;28;20298;-64
2023/10/09 07:21:27;;;;;;;11.10;4.87;;;19.70;69.00;;;;;;5070609;28;20230;-64
2023/10/09 07:23:58;;;;;;;10.40;4.77;;;19.70;69.00;;;;;;5089179;28;20291;-64
2023/10/09 07:26:37;;;;;;;12.90;4.40;;;19.70;68.60;;;;;;5089488;28;20197;-64
2023/10/09 07:29:21;;;;;;;12.67;5.17;;;19.70;68.70;;;;;;5089344;28;20253;-64
2023/10/09 07:31:57;;;;;;;13.07;4.40;;;19.80;68.60;;;;;;5091356;28;20204;-64
2023/10/09 07:34:52;;;;;;;12.37;5.07;;;19.80;68.40;;;;;;5089433;28;20211;-64
2023/10/09 07:37:22;;;;;;;14.60;4.93;;;19.90;68.40;;;;;;5101024;28;20219;-64
2023/10/09 07:39:56;;;;;;;9.00;4.73;;;19.90;68.30;;;;;;5108369;28;20248;-64
2023/10/09 07:42:33;;;;;;;10.23;4.30;;;20.00;68.20;;;;;;5069538;28;20210;-65
2023/10/09 07:45:11;;;;;;;16.80;5.63;;;20.00;67.80;;;;;;5068885;28;20228;-65
2023/10/09 07:50:22;;;;;;;12.20;4.80;;;20.00;67.60;;;;;;5089322;28;20570;-64
2023/10/09 07:52:50;;;;;;;11.97;4.67;;;20.00;67.50;;;;;;5110733;28;20215;-65
2023/10/09 07:55:29;;;;;;;11.13;4.10;;;20.00;67.40;;;;;;5110700;28;20618;-64
2023/10/09 07:58:10;;;;;;;15.50;4.83;;;20.10;67.30;;;;;;5110768;28;20213;-64
2023/10/09 08:00:49;;;;;;;7.83;4.63;;;20.20;67.10;;;;;;5103242;28;20231;-64
2023/10/09 08:03:23;;;;;;;9.20;4.33;;;20.20;66.80;;;;;;5097013;28;20576;-64
2023/10/09 08:05:52;;;;;;;12.20;4.83;;;20.30;66.60;;;;;;5111235;28;20278;-64
2023/10/09 08:08:39;;;;;;;11.67;4.73;;;20.30;66.50;;;;;;5110793;28;20699;-64
2023/10/09 08:14:03;;;;;;;15.43;4.60;;;20.30;66.00;;;;;;5089899;28;20562;-66
2023/10/09 08:16:40;;;;;;;11.47;4.23;;;20.40;66.10;;;;;;5089863;28;20235;-66
2023/10/09 08:19:32;;;;;;;7.63;4.10;;;20.40;65.50;;;;;;5093394;28;20296;-64
2023/10/09 08:22:37;;;;;;;11.50;4.13;;;20.50;65.80;;;;;;5094806;28;20192;-64
2023/10/09 08:25:04;;;;;;;10.57;4.03;;;20.50;65.40;;;;;;5074037;28;20201;-65
2023/10/09 08:27:54;;;;;;;12.27;4.67;;;20.60;65.40;;;;;;5086914;28;20189;-65
2023/10/09 08:30:28;;;;;;;9.30;4.67;;;20.60;65.30;;;;;;5094706;28;20674;-65
2023/10/09 08:33:07;;;;;;;13.07;4.90;;;20.70;65.20;;;;;;5094556;28;20239;-64
2023/10/09 08:35:47;;;;;;;12.00;4.60;;;20.80;65.10;;;;;;5095773;28;20306;-64
2023/10/09 08:38:14;;;;;;;10.33;4.47;;;21.00;64.70;;;;;;5095240;28;20220;-64
2023/10/09 08:40:42;;;;;;;13.10;4.73;;;21.00;64.30;;;;;;5094745;28;20206;-65
2023/10/09 08:43:11;;;;;;;13.23;5.10;;;21.00;64.30;;;;;;5107069;28;20290;-65
2023/10/09 08:45:45;;;;;;;11.77;4.57;;;21.10;64.70;;;;;;5094458;28;20226;-65
2023/10/09 08:48:15;;;;;;;10.83;3.90;;;21.20;63.90;;;;;;5099263;28;20735;-65
2023/10/09 08:50:43;;;;;;;9.00;4.20;;;21.20;63.80;;;;;;5102580;28;20587;-64
2023/10/09 08:53:11;;;;;;;9.30;4.07;;;21.30;63.80;;;;;;5113121;28;20268;-64
2023/10/09 08:55:39;;;;;;;15.63;4.73;;;21.40;63.60;;;;;;5113602;28;20237;-64
2023/10/09 08:58:19;;;;;;;14.87;4.73;;;21.60;63.60;;;;;;5114609;28;20212;-64
2023/10/09 09:00:48;;;;;;;13.67;4.70;;;21.70;63.30;;;;;;5113216;28;20214;-65
2023/10/09 09:03:17;;;;;;;11.87;5.10;;;21.80;62.90;;;;;;5114050;28;20222;-65
2023/10/09 09:05:49;;;;;;;10.10;4.10;;;21.80;62.30;;;;;;5114422;28;20210;-65
2023/10/09 09:08:25;;;;;;;11.70;4.90;;;21.90;62.20;;;;;;5096337;28;20722;-64
2023/10/09 09:10:59;;;;;;;11.33;3.97;;;22.00;62.00;;;;;;5110256;28;20199;-65
2023/10/09 09:13:31;;;;;;;11.33;3.97;;;22.20;61.80;;;;;;5093556;28;20235;-65
2023/10/09 09:15:59;;;;;;;9.13;4.30;;;22.30;61.60;;;;;;5093132;28;20315;-65
2023/10/09 09:18:31;;;;;;;9.27;4.07;;;22.50;61.20;;;;;;5093583;28;20211;-65
2023/10/09 09:20:59;;;;;;;9.53;4.00;;;22.60;61.30;;;;;;5095598;28;20208;-65
2023/10/09 09:23:26;;;;;;;10.80;4.00;;;22.70;61.10;;;;;;5096457;28;20243;-64
2023/10/09 09:25:59;;;;;;;10.43;5.23;;;22.90;61.00;;;;;;5114121;28;20206;-65
2023/10/09 09:28:32;;;;;;;10.80;4.40;;;22.90;59.80;;;;;;5114236;28;20208;-64
2023/10/09 09:31:13;;;;;;;14.47;4.00;;;23.00;59.90;;;;;;5109576;28;20283;-64
2023/10/09 09:33:42;;;;;;;8.27;4.03;;;23.10;59.40;;;;;;5114134;28;20206;-64
2023/10/09 09:36:11;;;;;;;11.50;4.20;;;23.20;59.10;;;;;;5113192;28;20215;-64
2023/10/09 09:38:48;;;;;;;13.47;4.63;;;23.30;59.10;;;;;;5104872;28;20360;-65
2023/10/09 09:41:23;;;;;;;11.80;4.67;;;23.40;58.90;;;;;;5094456;28;20664;-64
2023/10/09 09:43:54;;;;;;;14.20;4.27;;;23.50;58.70;;;;;;5105272;28;20198;-64
2023/10/09 09:46:32;;;;;;;12.27;4.30;;;23.60;58.50;;;;;;5103128;28;20200;-64
2023/10/09 09:49:01;;;;;;;14.27;4.40;;;23.80;58.50;;;;;;5094137;28;20228;-65
2023/10/09 09:51:31;;;;;;;12.97;4.63;;;23.80;58.00;;;;;;5091570;28;20208;-65
2023/10/09 09:53:59;;;;;;;11.20;4.67;;;23.90;57.80;;;;;;5105566;28;20219;-65
2023/10/09 09:56:28;;;;;;;12.40;4.37;;;24.00;57.20;;;;;;5113367;28;20238;-65
2023/10/09 09:58:57;;;;;;;10.93;4.10;;;24.00;57.20;;;;;;5112678;28;20293;-65
2023/10/09 10:01:31;;;;;;;10.37;3.90;;;24.00;57.20;;;;;;5112706;28;20231;-65
2023/10/09 10:04:00;;;;;;;11.17;4.20;;;24.10;57.20;;;;;;5105374;28;20282;-65
2023/10/09 10:06:32;;;;;;;15.20;4.40;;;24.20;57.40;;;;;;5092318;28;20200;-65
2023/10/09 10:08:59;;;;;;;9.57;4.23;;;24.30;56.80;;;;;;5093570;28;20234;-65
2023/10/09 10:11:45;;;;;;;10.53;3.77;;;24.40;56.90;;;;;;5092656;28;20200;-65
2023/10/09 10:14:21;;;;;;;8.40;3.90;;;24.30;56.10;;;;;;5091478;28;20648;-64
2023/10/09 10:17:17;;;;;;;11.47;4.13;;;24.40;57.50;;;;;;5092007;28;20227;-65
2023/10/09 10:22:48;;;;;;;9.33;4.33;;;24.40;56.20;;;;;;5072031;28;20292;-65
2023/10/09 10:25:41;;;;;;;8.67;3.50;;;24.50;56.60;;;;;;5077908;28;20209;-64
2023/10/09 10:28:38;;;;;;;11.40;3.50;;;24.60;56.40;;;;;;5091271;28;20334;-65
2023/10/09 10:31:07;;;;;;;11.40;3.63;;;24.80;56.00;;;;;;5080152;28;20216;-66
2023/10/09 10:34:10;;;;;;;13.37;3.80;;;25.00;56.30;;;;;;5091760;28;20239;-64
2023/10/09 10:36:42;;;;;;;14.70;4.30;;;25.20;55.50;;;;;;5092419;28;20216;-64
2023/10/09 10:39:11;;;;;;;5.67;3.50;;;25.40;55.60;;;;;;5111930;28;20249;-65
2023/10/09 10:41:50;;;;;;;10.10;3.70;;;25.60;55.20;;;;;;5111555;28;20199;-65
2023/10/09 10:44:36;;;;;;;16.60;3.60;;;25.70;54.80;;;;;;5111436;28;20256;-65
2023/10/09 10:47:05;;;;;;;8.33;3.80;;;25.60;54.30;;;;;;5107461;28;20231;-65
2023/10/09 10:49:40;;;;;;;11.13;4.00;;;25.60;55.00;;;;;;5091253;28;20200;-65
2023/10/09 10:52:16;;;;;;;8.50;3.93;;;25.50;55.10;;;;;;5057733;28;20240;-65
2023/10/09 10:54:45;;;;;;;10.97;3.73;;;25.40;54.90;;;;;;5091803;28;20227;-64
2023/10/09 10:57:53;;;;;;;9.80;3.43;;;25.40;54.70;;;;;;5092691;28;20248;-64
2023/10/09 11:03:13;;;;;;;9.13;3.57;;;25.10;55.10;;;;;;5093553;28;20196;-65
2023/10/09 11:05:43;;;;;;;11.23;4.17;;;25.00;55.60;;;;;;5103332;28;20275;-64
2023/10/09 11:08:13;;;;;;;12.97;4.00;;;24.90;55.50;;;;;;5094857;28;20265;-65
2023/10/09 11:10:49;;;;;;;8.93;3.50;;;24.90;55.60;;;;;;5089176;28;20192;-65
2023/10/09 11:13:35;;;;;;;11.77;3.80;;;24.90;55.50;;;;;;5090786;28;20211;-64
2023/10/09 11:16:24;;;;;;;10.27;4.03;;;24.80;55.60;;;;;;5090996;28;20200;-64
2023/10/09 11:18:51;;;;;;;8.53;3.50;;;24.90;55.90;;;;;;5092056;28;20228;-65
2023/10/09 11:21:31;;;;;;;10.33;3.60;;;24.90;55.80;;;;;;5090768;28;20216;-65
2023/10/09 11:26:53;;;;;;;8.27;3.53;;;24.90;55.90;;;;;;5090319;28;20722;-65
2023/10/09 11:29:23;;;;;;;8.93;3.93;;;25.00;55.70;;;;;;5092255;28;20203;-63
2023/10/09 11:32:00;;;;;;;15.00;4.10;;;25.00;55.30;;;;;;5108884;28;20369;-65
2023/10/09 11:34:31;;;;;;;12.80;3.93;;;25.00;55.10;;;;;;5111416;28;20290;-65
2023/10/09 11:37:05;;;;;;;9.83;3.93;;;25.10;55.30;;;;;;5109769;28;20265;-65
2023/10/09 11:39:32;;;;;;;9.83;4.00;;;25.20;55.00;;;;;;5110744;28;20289;-64
2023/10/09 11:42:06;;;;;;;13.17;4.07;;;25.40;55.10;;;;;;5110283;28;20268;-64
2023/10/09 11:44:39;;;;;;;10.97;4.07;;;25.60;54.50;;;;;;5110640;28;20211;-65
2023/10/09 11:47:32;;;;;;;10.67;4.27;;;25.80;54.20;;;;;;5102756;28;20194;-65
2023/10/09 11:50:17;;;;;;;13.67;4.50;;;26.00;54.10;;;;;;5090441;28;20231;-64
2023/10/09 11:55:48;;;;;;;14.70;4.07;;;26.40;52.20;;;;;;5101361;28;20224;-64
2023/10/09 11:58:22;;;;;;;10.57;4.03;;;26.60;52.20;;;;;;5116868;28;20216;-65
2023/10/09 12:00:56;;;;;;;9.57;3.73;;;26.80;51.70;;;;;;5114312;28;20193;-65
2023/10/09 12:03:28;;;;;;;10.77;4.27;;;27.10;50.90;;;;;;5128018;28;20201;-65
2023/10/09 12:05:56;;;;;;;11.00;3.83;;;27.20;50.20;;;;;;5113236;28;20215;-66
2023/10/09 12:08:26;;;;;;;15.17;4.33;;;27.20;50.00;;;;;;5076196;28;20232;-65
2023/10/09 12:10:55;;;;;;;10.00;3.90;;;27.40;49.10;;;;;;5094687;28;20204;-65
2023/10/09 12:13:25;;;;;;;10.13;4.00;;;27.60;49.40;;;;;;5094848;28;20212;-66
2023/10/09 12:15:53;;;;;;;10.20;4.63;;;27.70;48.30;;;;;;5098759;28;20285;-65
2023/10/09 12:18:23;;;;;;;10.50;4.03;;;28.00;47.80;;;;;;5094294;28;20288;-65
2023/10/09 12:21:02;;;;;;;9.90;4.27;;;28.10;48.10;;;;;;5093918;28;20200;-65
2023/10/09 12:23:35;;;;;;;10.67;4.00;;;28.10;47.00;;;;;;5094081;28;20214;-65
2023/10/09 12:26:02;;;;;;;8.57;3.57;;;28.10;47.10;;;;;;5095165;28;20231;-65
2023/10/09 12:28:30;;;;;;;12.57;4.57;;;28.00;46.40;;;;;;5094241;28;20322;-65
2023/10/09 12:31:01;;;;;;;7.60;4.13;;;27.90;46.90;;;;;;5093804;28;20567;-66
2023/10/09 12:33:29;;;;;;;10.23;4.23;;;27.80;47.30;;;;;;5097473;28;20203;-65
2023/10/09 12:35:59;;;;;;;8.20;4.00;;;27.70;47.10;;;;;;5094549;28;20303;-65
2023/10/09 12:38:31;;;;;;;8.27;3.83;;;27.80;46.60;;;;;;5095254;28;20217;-66
2023/10/09 12:41:08;;;;;;;7.10;4.07;;;28.20;47.00;;;;;;5093903;28;20235;-65
2023/10/09 12:43:37;;;;;;;11.87;3.70;;;28.50;46.30;;;;;;5093158;28;20545;-65
2023/10/09 12:46:07;;;;;;;9.00;4.07;;;28.90;45.60;;;;;;5092158;28;20594;-65
2023/10/09 12:48:35;;;;;;;9.37;3.93;;;29.00;44.80;;;;;;5095847;28;20683;-65
2023/10/09 12:51:06;;;;;;;14.30;4.50;;;29.20;44.80;;;;;;5114073;28;20204;-65
2023/10/09 12:53:33;;;;;;;7.80;3.90;;;29.50;44.70;;;;;;5113340;28;20267;-64
2023/10/09 12:56:00;;;;;;;10.27;3.37;;;29.60;43.60;;;;;;5113845;28;20207;-66
2023/10/09 12:58:28;;;;;;;8.70;4.27;;;29.70;43.90;;;;;;5095242;28;20220;-64
2023/10/09 13:00:55;;;;;;;11.70;4.23;;;29.80;44.20;;;;;;5097228;28;20275;-67
2023/10/09 13:03:28;;;;;;;8.77;4.50;;;30.00;43.70;;;;;;5092532;28;20236;-64
2023/10/09 13:05:56;;;;;;;10.37;4.00;;;30.10;43.20;;;;;;5093634;28;20213;-66
2023/10/09 13:08:24;;;;;;;7.30;4.00;;;30.30;43.30;;;;;;5093973;28;20654;-65
2023/10/09 13:10:58;;;;;;;11.43;4.17;;;30.30;42.40;;;;;;5093136;28;20205;-66
2023/10/09 13:13:39;;;;;;;13.20;4.13;;;30.60;42.60;;;;;;5080837;28;20227;-65
2023/10/09 13:16:13;;;;;;;11.07;4.10;;;30.80;41.70;;;;;;5093726;28;20229;-66
2023/10/09 13:18:41;;;;;;;9.70;4.83;;;31.10;42.50;;;;;;5103631;28;20225;-68
2023/10/09 13:21:08;;;;;;;14.50;4.47;;;31.40;41.90;;;;;;5104845;28;20611;-65
2023/10/09 13:23:39;;;;;;;10.00;4.53;;;31.90;40.80;;;;;;5056365;28;20258;-65
2023/10/09 13:26:17;;;;;;;11.50;4.30;;;32.10;39.90;;;;;;5093828;28;20194;-65
2023/10/09 13:28:47;;;;;;;8.67;4.67;;;32.40;38.60;;;;;;5092853;28;20184;-66
2023/10/09 13:31:15;;;;;;;15.30;4.73;;;33.00;38.80;;;;;;5097222;28;20322;-66
2023/10/09 13:33:43;;;;;;;12.57;4.67;;;34.30;38.00;;;;;;5096827;28;20204;-66
2023/10/09 13:36:17;;;;;;;17.57;4.20;;;35.70;36.90;;;;;;5059953;28;20205;-65
2023/10/09 13:38:44;;;;;;;11.93;4.73;;;36.30;34.90;;;;;;5078922;28;20231;-66
2023/10/09 13:41:14;;;;;;;11.53;4.73;;;36.60;33.50;;;;;;5072945;28;20210;-65
2023/10/09 13:43:43;;;;;;;11.63;5.03;;;36.10;33.60;;;;;;5072840;28;20327;-65
2023/10/09 13:46:12;;;;;;;10.03;4.47;;;35.30;34.30;;;;;;5087906;28;20300;-66
2023/10/09 13:48:43;;;;;;;8.30;3.90;;;34.70;35.40;;;;;;5101529;28;20380;-66
2023/10/09 13:51:13;;;;;;;11.53;4.60;;;34.40;35.80;;;;;;5112618;28;20232;-66
2023/10/09 13:53:45;;;;;;;11.67;4.20;;;34.20;36.20;;;;;;5112623;28;20203;-65
2023/10/09 13:56:18;;;;;;;10.53;4.80;;;34.20;36.60;;;;;;5111163;28;20282;-65
2023/10/09 13:58:46;;;;;;;13.50;4.63;;;34.80;35.70;;;;;;5099537;28;20216;-66
2023/10/09 14:01:26;;;;;;;11.50;4.73;;;34.70;35.60;;;;;;5098552;28;20627;-64
2023/10/09 14:03:56;;;;;;;13.03;5.30;;;33.80;36.40;;;;;;5091387;28;20238;-65
2023/10/09 14:06:31;;;;;;;14.63;4.57;;;32.90;37.80;;;;;;5091201;28;20754;-65